Terminal Aerodrome Forecast
Issued by NWS

Home | Current Version | Previous Version | Text Only | Print | Product List | Glossary On
Versions: 1 2 3 4 5 6 7 8 9 10 11 12 13
000
FTUS45 KVEF 140500
TAFBIH
TAF
KBIH 140530Z 1406/1506 32006KT P6SM SCT120 SCT250
     FM141200 VRB04KT P6SM BKN120 BKN200
     FM141900 16011G19KT P6SM BKN120 BKN200=

USA.gov is the U.S. government's official web portal to all federal, state and local government web resources and services.